sensor_id;sensor_type;location;lat;lon;timestamp;P1;durP1;ratioP1;P2;durP2;ratioP2
1122;SDS011;548;48.778;9.252;2023-02-26T10:11:48;10.90;;;10.30;;
1122;SDS011;548;48.778;9.252;2023-02-26T10:14:22;10.77;;;10.27;;
1122;SDS011;548;48.778;9.252;2023-02-26T10:16:53;11.60;;;10.87;;
1122;SDS011;548;48.778;9.252;2023-02-26T10:19:25;11.07;;;10.60;;
1122;SDS011;548;48.778;9.252;2023-02-26T10:21:56;9.90;;;9.50;;
1122;SDS011;548;48.778;9.252;2023-02-26T10:24:29;11.00;;;10.53;;
1122;SDS011;548;48.778;9.252;2023-02-26T10:27:05;10.33;;;9.87;;
1122;SDS011;548;48.778;9.252;2023-02-26T10:29:35;11.30;;;10.80;;
1122;SDS011;548;48.778;9.252;2023-02-26T10:32:11;10.47;;;10.07;;
1122;SDS011;548;48.778;9.252;2023-02-26T10:34:50;11.13;;;10.23;;
1122;SDS011;548;48.778;9.252;2023-02-26T10:37:20;12.40;;;11.70;;
1122;SDS011;548;48.778;9.252;2023-02-26T10:39:55;10.43;;;9.60;;
1122;SDS011;548;48.778;9.252;2023-02-26T10:42:32;9.83;;;9.40;;
1122;SDS011;548;48.778;9.252;2023-02-26T10:45:08;10.13;;;9.73;;
1122;SDS011;548;48.778;9.252;2023-02-26T10:47:49;10.53;;;9.93;;
1122;SDS011;548;48.778;9.252;2023-02-26T10:50:23;9.80;;;9.20;;
1122;SDS011;548;48.778;9.252;2023-02-26T10:52:51;10.20;;;9.70;;
1122;SDS011;548;48.778;9.252;2023-02-26T10:55:25;9.80;;;9.17;;
1122;SDS011;548;48.778;9.252;2023-02-26T10:58:05;10.33;;;9.80;;
1122;SDS011;548;48.778;9.252;2023-02-26T11:00:37;11.37;;;10.77;;
1122;SDS011;548;48.778;9.252;2023-02-26T11:03:05;9.30;;;8.90;;
1122;SDS011;548;48.778;9.252;2023-02-26T11:05:34;10.30;;;9.83;;
1122;SDS011;548;48.778;9.252;2023-02-26T11:08:01;10.47;;;10.00;;
1122;SDS011;548;48.778;9.252;2023-02-26T11:13:27;10.40;;;10.00;;
1122;SDS011;548;48.778;9.252;2023-02-26T11:15:56;12.73;;;10.00;;
1122;SDS011;548;48.778;9.252;2023-02-26T11:18:27;10.47;;;10.03;;
1122;SDS011;548;48.778;9.252;2023-02-26T11:21:05;10.20;;;9.80;;
1122;SDS011;548;48.778;9.252;2023-02-26T11:23:33;11.70;;;11.30;;
1122;SDS011;548;48.778;9.252;2023-02-26T11:26:02;10.40;;;10.00;;
1122;SDS011;548;48.778;9.252;2023-02-26T11:28:36;10.30;;;9.83;;
1122;SDS011;548;48.778;9.252;2023-02-26T11:31:08;10.63;;;10.13;;
1122;SDS011;548;48.778;9.252;2023-02-26T11:33:37;9.57;;;9.17;;
1122;SDS011;548;48.778;9.252;2023-02-26T11:36:07;11.50;;;10.90;;
1122;SDS011;548;48.778;9.252;2023-02-26T11:38:36;9.90;;;9.50;;
1122;SDS011;548;48.778;9.252;2023-02-26T11:41:03;9.33;;;9.03;;
1122;SDS011;548;48.778;9.252;2023-02-26T11:43:36;9.57;;;9.27;;
1122;SDS011;548;48.778;9.252;2023-02-26T11:46:07;10.43;;;10.00;;
1122;SDS011;548;48.778;9.252;2023-02-26T11:48:37;10.50;;;10.00;;
1122;SDS011;548;48.778;9.252;2023-02-26T11:51:06;10.40;;;10.00;;
1122;SDS011;548;48.778;9.252;2023-02-26T11:53:40;10.70;;;10.30;;
1122;SDS011;548;48.778;9.252;2023-02-26T11:56:10;9.90;;;9.50;;
1122;SDS011;548;48.778;9.252;2023-02-26T11:58:39;9.63;;;9.33;;
1122;SDS011;548;48.778;9.252;2023-02-26T12:01:10;10.60;;;10.10;;
1122;SDS011;548;48.778;9.252;2023-02-26T12:03:42;10.10;;;9.60;;
1122;SDS011;548;48.778;9.252;2023-02-26T12:06:15;10.07;;;9.57;;
1122;SDS011;548;48.778;9.252;2023-02-26T12:08:43;9.77;;;9.40;;
1122;SDS011;548;48.778;9.252;2023-02-26T12:11:14;8.13;;;7.73;;
1122;SDS011;548;48.778;9.252;2023-02-26T12:14:27;9.40;;;9.00;;
1122;SDS011;548;48.778;9.252;2023-02-26T12:17:09;9.37;;;8.77;;
1122;SDS011;548;48.778;9.252;2023-02-26T12:19:48;9.47;;;9.17;;
1122;SDS011;548;48.778;9.252;2023-02-26T12:22:25;10.20;;;9.60;;
1122;SDS011;548;48.778;9.252;2023-02-26T12:25:20;10.87;;;10.37;;
1122;SDS011;548;48.778;9.252;2023-02-26T12:28:02;10.50;;;10.10;;
1122;SDS011;548;48.778;9.252;2023-02-26T12:30:47;8.80;;;8.50;;
1122;SDS011;548;48.778;9.252;2023-02-26T12:33:26;9.57;;;9.27;;
1122;SDS011;548;48.778;9.252;2023-02-26T12:36:15;9.60;;;9.30;;
1122;SDS011;548;48.778;9.252;2023-02-26T12:39:04;9.43;;;8.93;;
1122;SDS011;548;48.778;9.252;2023-02-26T12:41:47;7.93;;;7.63;;
1122;SDS011;548;48.778;9.252;2023-02-26T12:44:26;8.83;;;8.53;;
1122;SDS011;548;48.778;9.252;2023-02-26T12:47:13;9.10;;;8.70;;
1122;SDS011;548;48.778;9.252;2023-02-26T12:50:02;8.30;;;8.00;;
1122;SDS011;548;48.778;9.252;2023-02-26T12:52:51;8.90;;;8.40;;
1122;SDS011;548;48.778;9.252;2023-02-26T12:55:36;10.07;;;9.67;;
1122;SDS011;548;48.778;9.252;2023-02-26T12:58:24;9.60;;;9.20;;
1122;SDS011;548;48.778;9.252;2023-02-26T13:01:11;9.43;;;9.03;;
1122;SDS011;548;48.778;9.252;2023-02-26T13:04:06;9.00;;;8.70;;
1122;SDS011;548;48.778;9.252;2023-02-26T13:06:48;8.73;;;8.40;;
1122;SDS011;548;48.778;9.252;2023-02-26T13:09:27;9.07;;;8.77;;
1122;SDS011;548;48.778;9.252;2023-02-26T13:12:01;8.90;;;8.50;;
1122;SDS011;548;48.778;9.252;2023-02-26T13:14:40;8.50;;;8.20;;
1122;SDS011;548;48.778;9.252;2023-02-26T13:17:17;8.93;;;8.63;;
1122;SDS011;548;48.778;9.252;2023-02-26T13:19:54;10.13;;;9.67;;
1122;SDS011;548;48.778;9.252;2023-02-26T13:22:25;9.03;;;8.67;;
1122;SDS011;548;48.778;9.252;2023-02-26T13:24:56;8.90;;;8.60;;
1122;SDS011;548;48.778;9.252;2023-02-26T13:27:27;8.83;;;8.47;;
1122;SDS011;548;48.778;9.252;2023-02-26T13:30:02;9.33;;;8.87;;
1122;SDS011;548;48.778;9.252;2023-02-26T13:32:35;9.30;;;9.00;;
1122;SDS011;548;48.778;9.252;2023-02-26T13:35:08;9.60;;;9.20;;
1122;SDS011;548;48.778;9.252;2023-02-26T13:37:45;9.13;;;8.67;;
1122;SDS011;548;48.778;9.252;2023-02-26T13:40:21;9.83;;;9.33;;
1122;SDS011;548;48.778;9.252;2023-02-26T13:42:59;9.30;;;9.00;;
1122;SDS011;548;48.778;9.252;2023-02-26T13:45:33;8.30;;;8.00;;
1122;SDS011;548;48.778;9.252;2023-02-26T13:48:13;8.80;;;8.50;;
1122;SDS011;548;48.778;9.252;2023-02-26T13:50:52;8.63;;;8.33;;
1122;SDS011;548;48.778;9.252;2023-02-26T13:53:41;9.30;;;9.00;;
1122;SDS011;548;48.778;9.252;2023-02-26T13:56:14;8.83;;;8.53;;
1122;SDS011;548;48.778;9.252;2023-02-26T13:58:43;9.10;;;8.80;;
1122;SDS011;548;48.778;9.252;2023-02-26T14:01:15;8.03;;;7.83;;
1122;SDS011;548;48.778;9.252;2023-02-26T14:03:44;8.50;;;8.20;;
1122;SDS011;548;48.778;9.252;2023-02-26T14:06:23;8.13;;;7.83;;
1122;SDS011;548;48.778;9.252;2023-02-26T14:09:02;8.43;;;8.13;;
1122;SDS011;548;48.778;9.252;2023-02-26T14:11:41;8.70;;;8.40;;
1122;SDS011;548;48.778;9.252;2023-02-26T14:14:15;9.17;;;8.87;;
1122;SDS011;548;48.778;9.252;2023-02-26T14:16:47;8.30;;;8.00;;
1122;SDS011;548;48.778;9.252;2023-02-26T14:19:22;8.43;;;8.10;;
1122;SDS011;548;48.778;9.252;2023-02-26T14:21:55;7.97;;;7.67;;
1122;SDS011;548;48.778;9.252;2023-02-26T14:24:30;9.30;;;9.00;;
1122;SDS011;548;48.778;9.252;2023-02-26T14:27:19;8.73;;;8.43;;
1122;SDS011;548;48.778;9.252;2023-02-26T14:30:11;9.30;;;9.00;;
1122;SDS011;548;48.778;9.252;2023-02-26T14:32:46;9.17;;;8.80;;
1122;SDS011;548;48.778;9.252;2023-02-26T14:35:16;8.87;;;8.57;;
1122;SDS011;548;48.778;9.252;2023-02-26T14:37:56;10.10;;;9.70;;
1122;SDS011;548;48.778;9.252;2023-02-26T14:40:24;9.23;;;8.80;;
1122;SDS011;548;48.778;9.252;2023-02-26T14:42:54;9.13;;;8.70;;
1122;SDS011;548;48.778;9.252;2023-02-26T14:45:26;8.87;;;8.57;;
1122;SDS011;548;48.778;9.252;2023-02-26T14:47:55;7.63;;;7.43;;
1122;SDS011;548;48.778;9.252;2023-02-26T14:50:23;8.00;;;7.70;;
1122;SDS011;548;48.778;9.252;2023-02-26T14:53:10;8.60;;;8.20;;
1122;SDS011;548;48.778;9.252;2023-02-26T14:56:05;8.60;;;8.30;;
1122;SDS011;548;48.778;9.252;2023-02-26T14:58:50;9.40;;;8.90;;
1122;SDS011;548;48.778;9.252;2023-02-26T15:01:35;8.90;;;8.40;;
1122;SDS011;548;48.778;9.252;2023-02-26T15:04:19;9.30;;;8.90;;
1122;SDS011;548;48.778;9.252;2023-02-26T15:07:13;7.47;;;7.17;;
1122;SDS011;548;48.778;9.252;2023-02-26T15:09:50;8.00;;;7.80;;
1122;SDS011;548;48.778;9.252;2023-02-26T15:12:38;8.50;;;8.20;;
1122;SDS011;548;48.778;9.252;2023-02-26T15:15:20;8.97;;;8.67;;
1122;SDS011;548;48.778;9.252;2023-02-26T15:17:59;7.83;;;7.63;;
1122;SDS011;548;48.778;9.252;2023-02-26T15:20:37;8.77;;;8.47;;
1122;SDS011;548;48.778;9.252;2023-02-26T15:23:22;8.77;;;8.47;;
1122;SDS011;548;48.778;9.252;2023-02-26T15:26:12;8.73;;;8.43;;
1122;SDS011;548;48.778;9.252;2023-02-26T15:28:43;8.27;;;7.87;;
1122;SDS011;548;48.778;9.252;2023-02-26T15:31:11;9.50;;;9.10;;
1122;SDS011;548;48.778;9.252;2023-02-26T15:33:38;8.37;;;7.97;;
1122;SDS011;548;48.778;9.252;2023-02-26T15:36:06;7.97;;;7.67;;
1122;SDS011;548;48.778;9.252;2023-02-26T15:38:40;8.73;;;8.43;;
1122;SDS011;548;48.778;9.252;2023-02-26T15:41:12;9.03;;;8.63;;
1122;SDS011;548;48.778;9.252;2023-02-26T15:43:42;8.57;;;8.27;;
1122;SDS011;548;48.778;9.252;2023-02-26T15:46:12;8.77;;;8.37;;
1122;SDS011;548;48.778;9.252;2023-02-26T15:48:40;7.70;;;7.30;;
1122;SDS011;548;48.778;9.252;2023-02-26T15:51:08;8.00;;;7.70;;
1122;SDS011;548;48.778;9.252;2023-02-26T15:53:39;7.40;;;7.10;;
1122;SDS011;548;48.778;9.252;2023-02-26T15:56:08;7.70;;;7.47;;
1122;SDS011;548;48.778;9.252;2023-02-26T15:58:39;8.33;;;8.03;;
1122;SDS011;548;48.778;9.252;2023-02-26T16:01:13;8.93;;;8.53;;
1122;SDS011;548;48.778;9.252;2023-02-26T16:03:41;10.10;;;9.70;;
1122;SDS011;548;48.778;9.252;2023-02-26T16:06:09;9.30;;;8.90;;
1122;SDS011;548;48.778;9.252;2023-02-26T16:08:38;8.83;;;8.43;;
1122;SDS011;548;48.778;9.252;2023-02-26T16:11:05;8.53;;;8.23;;
1122;SDS011;548;48.778;9.252;2023-02-26T16:13:33;8.73;;;8.33;;
1122;SDS011;548;48.778;9.252;2023-02-26T16:16:04;8.50;;;8.20;;
1122;SDS011;548;48.778;9.252;2023-02-26T16:18:36;8.43;;;8.13;;
1122;SDS011;548;48.778;9.252;2023-02-26T16:21:05;7.47;;;7.17;;
1122;SDS011;548;48.778;9.252;2023-02-26T16:23:39;8.43;;;8.03;;
1122;SDS011;548;48.778;9.252;2023-02-26T16:26:11;8.73;;;8.33;;
1122;SDS011;548;48.778;9.252;2023-02-26T16:28:53;7.80;;;7.60;;
1122;SDS011;548;48.778;9.252;2023-02-26T16:31:25;8.33;;;7.93;;
1122;SDS011;548;48.778;9.252;2023-02-26T16:33:55;8.30;;;8.00;;
1122;SDS011;548;48.778;9.252;2023-02-26T16:36:24;8.30;;;7.97;;
1122;SDS011;548;48.778;9.252;2023-02-26T16:38:57;8.80;;;8.30;;
1122;SDS011;548;48.778;9.252;2023-02-26T16:41:27;8.03;;;7.73;;
1122;SDS011;548;48.778;9.252;2023-02-26T16:43:56;9.30;;;8.90;;
1122;SDS011;548;48.778;9.252;2023-02-26T16:46:35;9.37;;;8.40;;
1122;SDS011;548;48.778;9.252;2023-02-26T16:49:08;7.00;;;6.70;;
1122;SDS011;548;48.778;9.252;2023-02-26T16:51:39;8.43;;;8.13;;
1122;SDS011;548;48.778;9.252;2023-02-26T16:54:08;7.80;;;7.60;;
1122;SDS011;548;48.778;9.252;2023-02-26T16:56:42;8.40;;;8.00;;
1122;SDS011;548;48.778;9.252;2023-02-26T16:59:11;8.57;;;8.17;;
1122;SDS011;548;48.778;9.252;2023-02-26T17:01:45;9.07;;;8.67;;
1122;SDS011;548;48.778;9.252;2023-02-26T17:04:16;8.70;;;8.40;;
1122;SDS011;548;48.778;9.252;2023-02-26T17:06:44;8.50;;;8.20;;
1122;SDS011;548;48.778;9.252;2023-02-26T17:09:23;7.13;;;6.93;;
1122;SDS011;548;48.778;9.252;2023-02-26T17:12:02;7.57;;;7.37;;
1122;SDS011;548;48.778;9.252;2023-02-26T17:14:32;8.23;;;7.93;;
1122;SDS011;548;48.778;9.252;2023-02-26T17:17:05;7.37;;;7.17;;
1122;SDS011;548;48.778;9.252;2023-02-26T17:19:32;7.40;;;6.93;;
1122;SDS011;548;48.778;9.252;2023-02-26T17:22:10;7.30;;;7.00;;
1122;SDS011;548;48.778;9.252;2023-02-26T17:24:40;7.23;;;6.93;;
1122;SDS011;548;48.778;9.252;2023-02-26T17:27:10;7.90;;;7.60;;
1122;SDS011;548;48.778;9.252;2023-02-26T17:29:40;6.53;;;6.33;;
1122;SDS011;548;48.778;9.252;2023-02-26T17:32:11;6.13;;;5.93;;
1122;SDS011;548;48.778;9.252;2023-02-26T17:34:42;7.27;;;6.97;;
1122;SDS011;548;48.778;9.252;2023-02-26T17:37:09;8.03;;;7.67;;
1122;SDS011;548;48.778;9.252;2023-02-26T17:39:37;8.60;;;8.00;;
1122;SDS011;548;48.778;9.252;2023-02-26T17:42:07;8.10;;;7.80;;
1122;SDS011;548;48.778;9.252;2023-02-26T17:44:35;7.97;;;7.67;;
1122;SDS011;548;48.778;9.252;2023-02-26T17:47:02;7.53;;;7.33;;
1122;SDS011;548;48.778;9.252;2023-02-26T17:49:30;7.33;;;7.13;;
1122;SDS011;548;48.778;9.252;2023-02-26T17:51:56;6.67;;;6.47;;
1122;SDS011;548;48.778;9.252;2023-02-26T17:54:23;7.13;;;6.83;;
1122;SDS011;548;48.778;9.252;2023-02-26T17:56:50;7.10;;;6.87;;
